Bei Facebook empfehlenBei Twitter postenGoogle plusPinterest

Das Wetter im Erzgebirge am 28.10.2015

Wetter und Klima am 28.10.2015 Holzhau im Erzgebirge (630m ü.NN)
Letzte gemessene Temperatur und Uhrzeit der Messung23:59:00 Uhr5.80 °C
Temperatur (Maximum / Höchstwert) und Uhrzeit der Messung14:29:00 Uhr10.80 °C
Temperatur (Minimum / Tiefstwert) und Uhrzeit der Messung07:14:004.90 °C
Errechneter Absolutwert der Temperaturschwankungen zwischen Tmin und Tmax des Tages5.90 K
Errechnete Tagesmitteltemperatur6.29308 °C
Gesamt - Niederschlag des Tages (in flüssiger Form)0.00 Liter / m²
Luftdruck (Maximum / Höchstwert) und Zeitpunkt der Messung00:30:00 Uhr1014.40 hPa
Luftdruck (Minimum / Tiefstwert) und Zeitpunkt der Messung20:59:00 Uhr1009.90 hPa
Errechneter Absolutwert der Luftdruckschwankungen des Tages4.50 hPa
Höchste gemessene Windgeschwindigkeit und Uhrzeit der Messung05:29:00 Uhr20.52 km/h
Errechnete Windhäufigkeit in Relation zu den Messwerten des Tages53.07692 %
Niedrigste Windkühle (Windchill) und Zeitpunkt der Messung05:29:00 Uhr1.60 °C
Taupunkt (Maximum / Höchstwert) und Uhrzeit der Messung14:29:00 Uhr7.90 °C
Taupunkt (Minimum / Tiefstwert) und Uhrzeit der Messung07:14:003.70 °C
Anzahl der automatisch eingelesenen Messwerte 130

Detaillierte Wetter- und Klima- Messwerte für den 28.10.2015 in Holzhau im Erzgebirge (630m ü.NN)
ZeitTemperaturLuftdruckRel. LuftfeuchteWindWindrichtungWindchillTaupunktNiederschlag l/m²
23:59:005.80 °C1010.60 hPa93.00 %4.80 °C 
23:44:005.80 °C1010.70 hPa93.00 %1.80 km/hONO5.80 °C4.80 °C 
23:29:005.80 °C1010.80 hPa93.00 %2.52 km/hSSO5.80 °C4.80 °C 
23:14:005.80 °C1010.60 hPa93.00 %4.80 °C 
22:59:005.70 °C1010.90 hPa93.00 %2.16 km/hNO5.70 °C4.70 °C 
22:44:005.70 °C1010.50 hPa93.00 %4.70 °C 
22:29:005.70 °C1010.70 hPa93.00 %4.70 °C 
22:14:005.80 °C1010.70 hPa93.00 %6.12 km/hSSO4.60 °C4.80 °C 
21:59:005.80 °C1010.70 hPa93.00 %4.80 °C 
21:44:005.70 °C1010.40 hPa92.00 %11.88 km/hSSO3.10 °C4.50 °C 
21:29:005.60 °C1010.30 hPa92.00 %4.40 °C 
21:14:005.60 °C1010.20 hPa92.00 %1.44 km/hSO5.60 °C4.40 °C 
20:59:005.60 °C1009.90 hPa92.00 %6.12 km/hSO4.40 °C4.40 °C 
20:44:005.40 °C1010.00 hPa92.00 %4.32 km/hO5.40 °C4.20 °C 
20:29:005.40 °C1010.10 hPa92.00 %5.04 km/hNNO4.50 °C4.20 °C 
20:14:005.50 °C1010.10 hPa91.00 %6.12 km/hONO4.30 °C4.20 °C 
19:59:005.60 °C1010.10 hPa91.00 %4.20 °C 
19:44:005.50 °C1010.30 hPa91.00 %4.20 °C 
19:29:005.60 °C1010.30 hPa91.00 %4.20 °C 
19:14:005.60 °C1010.40 hPa91.00 %4.20 °C 
18:59:005.60 °C1010.30 hPa91.00 %6.48 km/hNNO4.30 °C4.20 °C 
18:44:005.80 °C1010.30 hPa90.00 %1.80 km/hSO5.80 °C4.30 °C 
18:29:005.60 °C1010.40 hPa90.00 %4.10 °C 
18:14:005.80 °C1010.40 hPa90.00 %4.32 km/hNO5.80 °C4.30 °C 
17:59:005.90 °C1010.20 hPa89.00 %4.20 °C 
17:44:006.10 °C1010.40 hPa89.00 %12.24 km/hSSO3.50 °C4.40 °C 
17:29:006.10 °C1010.40 hPa89.00 %19.44 km/hWSW2.50 °C4.40 °C 
17:14:006.10 °C1010.50 hPa88.00 %8.64 km/hONO4.30 °C4.30 °C 
16:59:005.90 °C1010.50 hPa87.00 %5.04 km/hOSO5.10 °C3.90 °C 
16:44:006.10 °C1010.50 hPa87.00 %3.24 km/hONO6.10 °C4.10 °C 
16:29:006.40 °C1010.40 hPa86.00 %4.20 °C 
16:14:006.80 °C1010.50 hPa85.00 %7.56 km/hSO5.40 °C4.50 °C 
15:59:007.20 °C1010.70 hPa84.00 %2.52 km/hSO7.20 °C4.70 °C 
15:44:007.60 °C1010.60 hPa83.00 %9.72 km/hONO5.80 °C4.90 °C 
15:29:008.20 °C1010.50 hPa82.00 %6.48 km/hNNW7.30 °C5.30 °C 
15:14:008.60 °C1010.70 hPa82.00 %5.70 °C 
14:59:009.40 °C1010.60 hPa81.00 %9.00 km/hSSO8.10 °C6.30 °C 
14:44:0010.30 °C1010.60 hPa81.00 %7.20 °C 
14:29:0010.80 °C1010.60 hPa82.00 %7.90 °C 
14:14:0010.30 °C1010.70 hPa84.00 %2.52 km/hWNW10.30 °C7.70 °C 
13:59:009.50 °C1010.70 hPa84.00 %8.64 km/hOSO8.30 °C6.90 °C 
13:44:008.90 °C1010.60 hPa85.00 %6.50 °C 
13:29:008.80 °C1010.70 hPa85.00 %1.80 km/hS8.80 °C6.40 °C 
13:14:009.00 °C1010.70 hPa86.00 %6.80 °C 
12:59:009.00 °C1010.50 hPa87.00 %9.36 km/hNO7.60 °C7.00 °C 
12:44:008.90 °C1010.60 hPa88.00 %0.36 km/hN8.90 °C7.00 °C 
12:29:008.30 °C1010.60 hPa88.00 %6.40 °C 
12:14:008.10 °C1010.50 hPa88.00 %6.20 °C 
11:59:007.60 °C1010.70 hPa89.00 %5.90 °C 
11:44:007.60 °C1010.90 hPa89.00 %1.80 km/hOSO7.60 °C5.90 °C 
11:29:007.70 °C1010.80 hPa90.00 %6.20 °C 
11:14:007.70 °C1010.90 hPa90.00 %6.20 °C 
10:59:007.30 °C1010.90 hPa90.00 %5.80 °C 
10:44:007.00 °C1011.20 hPa90.00 %4.68 km/hN7.00 °C5.50 °C 
10:29:006.90 °C1010.90 hPa91.00 %3.60 km/hW6.90 °C5.50 °C 
10:14:006.90 °C1011.10 hPa92.00 %15.48 km/hSO4.00 °C5.70 °C 
09:59:006.50 °C1011.10 hPa92.00 %5.30 °C 
09:44:006.30 °C1011.10 hPa92.00 %5.10 °C 
09:29:006.10 °C1011.20 hPa92.00 %4.90 °C 
09:14:005.90 °C1011.20 hPa92.00 %4.70 °C 
08:59:006.00 °C1011.30 hPa92.00 %4.80 °C 
08:44:005.80 °C1011.10 hPa92.00 %4.60 °C 
08:29:005.60 °C1011.30 hPa93.00 %7.56 km/hSW4.00 °C4.60 °C 
08:15:004.90 °C1011.40 hPa92.00 %3.70 °C 
08:14:005.40 °C1011.40 hPa93.00 %9.72 km/hNNO3.20 °C4.40 °C 
08:00:005.00 °C1011.20 hPa92.00 %12.24 km/hWSW2.20 °C3.80 °C 
07:59:005.30 °C1011.30 hPa93.00 %5.76 km/hSO4.10 °C4.30 °C 
07:45:005.10 °C1011.30 hPa92.00 %8.64 km/hNNO3.10 °C3.90 °C 
07:44:005.20 °C1011.30 hPa93.00 %4.20 °C 
07:30:005.10 °C1011.30 hPa92.00 %3.90 °C 
07:29:005.00 °C1011.40 hPa92.00 %3.80 °C 
07:15:005.30 °C1011.00 hPa92.00 %4.10 °C 
07:14:004.90 °C1011.40 hPa92.00 %3.70 °C 
07:00:005.30 °C1011.10 hPa92.00 %3.60 km/hN5.30 °C4.10 °C 
06:59:005.00 °C1011.20 hPa92.00 %12.24 km/hWSW2.20 °C3.80 °C 
06:45:005.40 °C1011.10 hPa92.00 %4.20 °C 
06:44:005.10 °C1011.30 hPa92.00 %8.64 km/hNNO3.10 °C3.90 °C 
06:30:005.50 °C1011.30 hPa92.00 %20.52 km/hSSO1.60 °C4.30 °C 
06:29:005.10 °C1011.30 hPa92.00 %3.90 °C 
06:15:005.60 °C1011.30 hPa92.00 %4.40 °C 
06:14:005.30 °C1011.00 hPa92.00 %4.10 °C 
06:00:005.80 °C1011.40 hPa91.00 %11.52 km/hSO3.30 °C4.40 °C 
05:59:005.30 °C1011.10 hPa92.00 %3.60 km/hN5.30 °C4.10 °C 
05:45:005.80 °C1011.50 hPa91.00 %4.40 °C 
05:44:005.40 °C1011.10 hPa92.00 %4.20 °C 
05:30:005.90 °C1011.70 hPa91.00 %4.50 °C 
05:29:005.50 °C1011.30 hPa92.00 %20.52 km/hSSO1.60 °C4.30 °C 
05:15:005.90 °C1011.80 hPa91.00 %4.50 °C 
05:14:005.60 °C1011.30 hPa92.00 %4.40 °C 
05:00:006.10 °C1011.90 hPa91.00 %4.70 °C 
04:59:005.80 °C1011.40 hPa91.00 %11.52 km/hSO3.30 °C4.40 °C 
04:45:006.10 °C1012.10 hPa91.00 %1.80 km/hSO6.10 °C4.70 °C 
04:44:005.80 °C1011.50 hPa91.00 %4.40 °C 
04:30:006.10 °C1012.30 hPa91.00 %1.44 km/hSO6.10 °C4.70 °C 
04:29:005.90 °C1011.70 hPa91.00 %4.50 °C 
04:15:006.20 °C1012.40 hPa91.00 %4.80 °C 
04:14:005.90 °C1011.80 hPa91.00 %4.50 °C 
04:00:006.30 °C1012.50 hPa91.00 %16.20 km/hS3.20 °C4.90 °C 
03:59:006.10 °C1011.90 hPa91.00 %4.70 °C 
03:45:006.30 °C1012.50 hPa91.00 %4.90 °C 
03:44:006.10 °C1012.10 hPa91.00 %1.80 km/hSO6.10 °C4.70 °C 
03:30:006.40 °C1012.80 hPa92.00 %9.36 km/hONO4.50 °C5.20 °C 
03:29:006.10 °C1012.30 hPa91.00 %1.44 km/hSO6.10 °C4.70 °C 
03:15:006.40 °C1013.10 hPa92.00 %5.20 °C 
03:14:006.20 °C1012.40 hPa91.00 %4.80 °C 
03:00:006.40 °C1013.30 hPa92.00 %8.64 km/hSO4.60 °C5.20 °C 
02:59:006.30 °C1012.50 hPa91.00 %16.20 km/hS3.20 °C4.90 °C 
02:45:006.20 °C1013.40 hPa91.00 %7.20 km/hOSO4.80 °C4.80 °C 
02:44:006.30 °C1012.50 hPa91.00 %4.90 °C 
02:30:006.10 °C1013.50 hPa91.00 %11.16 km/hSO3.70 °C4.70 °C 
02:29:006.40 °C1012.80 hPa92.00 %9.36 km/hONO4.50 °C5.20 °C 
02:15:006.10 °C1013.70 hPa91.00 %2.16 km/hSO6.10 °C4.70 °C 
02:14:006.40 °C1013.10 hPa92.00 %5.20 °C 
02:00:006.10 °C1013.60 hPa91.00 %4.70 °C 
01:59:006.40 °C1013.30 hPa92.00 %8.64 km/hSO4.60 °C5.20 °C 
01:45:006.10 °C1013.80 hPa91.00 %9.00 km/hO4.20 °C4.70 °C 
01:44:006.20 °C1013.40 hPa91.00 %7.20 km/hOSO4.80 °C4.80 °C 
01:30:005.90 °C1014.10 hPa91.00 %2.16 km/hSO5.90 °C4.50 °C 
01:29:006.10 °C1013.50 hPa91.00 %11.16 km/hSO3.70 °C4.70 °C 
01:15:005.90 °C1014.20 hPa91.00 %9.72 km/hNNO3.80 °C4.50 °C 
01:14:006.10 °C1013.70 hPa91.00 %2.16 km/hSO6.10 °C4.70 °C 
01:00:005.90 °C1014.30 hPa91.00 %4.50 °C 
00:59:006.10 °C1013.60 hPa91.00 %4.70 °C 
00:45:005.90 °C1014.30 hPa91.00 %4.50 °C 
00:44:006.10 °C1013.80 hPa91.00 %9.00 km/hO4.20 °C4.70 °C 
00:30:005.90 °C1014.40 hPa90.00 %4.40 °C 
00:29:005.90 °C1014.10 hPa91.00 %2.16 km/hSO5.90 °C4.50 °C 
00:15:006.00 °C1014.30 hPa90.00 %5.04 km/hSO5.20 °C4.50 °C 
00:14:005.90 °C1014.20 hPa91.00 %9.72 km/hNNO3.80 °C4.50 °C 
00:00:005.90 °C1014.30 hPa90.00 %6.84 km/hOSO4.50 °C4.40 °C 

Permanenter Link zu dieser Seite: Wetter im Erzgebirge am 28.10.2015
Performance-Info: Die Erstellung der Seite / Statistik(en) / Tabelle(n) erforderte 5 Datenbankserver-Abfrage(n) und dauerte 98 Millisekunden. (Dieser Messwert ist von der Gesamt-Auslastung des Servers abhängig.)
Erzgebirge - Wetter | Erzgebirge - Wetter (Mobilgeräte) | Komplette Klimadatenbank